sensor_id;sensor_type;location;lat;lon;timestamp;temperature;humidity
11005;DHT22;5555;59.622;16.556;2023-06-04T00:00:47;13.30;99.90
11005;DHT22;5555;59.622;16.556;2023-06-04T00:03:13;13.30;99.90
11005;DHT22;5555;59.622;16.556;2023-06-04T00:05:38;13.30;99.90
11005;DHT22;5555;59.622;16.556;2023-06-04T00:08:04;13.20;99.90
11005;DHT22;5555;59.622;16.556;2023-06-04T00:10:30;13.20;99.90
11005;DHT22;5555;59.622;16.556;2023-06-04T00:12:56;13.20;99.90
11005;DHT22;5555;59.622;16.556;2023-06-04T00:15:22;13.20;99.90
11005;DHT22;5555;59.622;16.556;2023-06-04T00:17:48;13.10;99.90
11005;DHT22;5555;59.622;16.556;2023-06-04T00:20:14;13.20;99.90
11005;DHT22;5555;59.622;16.556;2023-06-04T00:22:39;13.10;99.90
11005;DHT22;5555;59.622;16.556;2023-06-04T00:25:08;13.10;99.90
11005;DHT22;5555;59.622;16.556;2023-06-04T00:27:34;13.10;99.90
11005;DHT22;5555;59.622;16.556;2023-06-04T00:29:59;13.10;99.90
11005;DHT22;5555;59.622;16.556;2023-06-04T00:32:25;13.00;99.90
11005;DHT22;5555;59.622;16.556;2023-06-04T00:34:52;13.00;99.90
11005;DHT22;5555;59.622;16.556;2023-06-04T00:37:17;13.00;99.90
11005;DHT22;5555;59.622;16.556;2023-06-04T00:39:43;13.00;99.90
11005;DHT22;5555;59.622;16.556;2023-06-04T00:42:09;12.90;99.90
11005;DHT22;5555;59.622;16.556;2023-06-04T00:44:34;12.90;99.90
11005;DHT22;5555;59.622;16.556;2023-06-04T00:47:01;12.90;99.90
11005;DHT22;5555;59.622;16.556;2023-06-04T00:49:28;12.90;99.90
11005;DHT22;5555;59.622;16.556;2023-06-04T00:51:53;12.80;99.90
11005;DHT22;5555;59.622;16.556;2023-06-04T00:54:19;12.80;99.90
11005;DHT22;5555;59.622;16.556;2023-06-04T00:56:47;12.80;99.90
11005;DHT22;5555;59.622;16.556;2023-06-04T00:59:12;12.80;99.90
11005;DHT22;5555;59.622;16.556;2023-06-04T01:02:06;12.80;99.90
11005;DHT22;5555;59.622;16.556;2023-06-04T01:07:03;12.80;99.90
11005;DHT22;5555;59.622;16.556;2023-06-04T01:09:30;12.80;99.90
11005;DHT22;5555;59.622;16.556;2023-06-04T01:11:58;12.80;99.90
11005;DHT22;5555;59.622;16.556;2023-06-04T01:14:25;12.70;99.90
11005;DHT22;5555;59.622;16.556;2023-06-04T01:17:00;12.60;99.90
11005;DHT22;5555;59.622;16.556;2023-06-04T01:22:43;12.40;99.90
11005;DHT22;5555;59.622;16.556;2023-06-04T01:25:25;12.30;99.90
11005;DHT22;5555;59.622;16.556;2023-06-04T01:27:56;12.30;99.90
11005;DHT22;5555;59.622;16.556;2023-06-04T01:30:30;12.30;99.90
11005;DHT22;5555;59.622;16.556;2023-06-04T01:32:57;12.20;99.90
11005;DHT22;5555;59.622;16.556;2023-06-04T01:35:26;12.30;99.90
11005;DHT22;5555;59.622;16.556;2023-06-04T01:37:52;12.30;99.90
11005;DHT22;5555;59.622;16.556;2023-06-04T01:40:20;12.30;99.90
11005;DHT22;5555;59.622;16.556;2023-06-04T01:42:45;12.30;99.90
11005;DHT22;5555;59.622;16.556;2023-06-04T01:45:11;12.30;99.90
11005;DHT22;5555;59.622;16.556;2023-06-04T01:47:37;12.30;99.90
11005;DHT22;5555;59.622;16.556;2023-06-04T01:50:04;12.30;99.90
11005;DHT22;5555;59.622;16.556;2023-06-04T01:52:30;12.20;99.90
11005;DHT22;5555;59.622;16.556;2023-06-04T01:54:56;12.20;99.90
11005;DHT22;5555;59.622;16.556;2023-06-04T01:57:22;12.20;99.90
11005;DHT22;5555;59.622;16.556;2023-06-04T01:59:48;12.20;99.90
11005;DHT22;5555;59.622;16.556;2023-06-04T02:02:14;12.20;99.90
11005;DHT22;5555;59.622;16.556;2023-06-04T02:04:41;12.10;99.90
11005;DHT22;5555;59.622;16.556;2023-06-04T02:07:10;12.10;99.90
11005;DHT22;5555;59.622;16.556;2023-06-04T02:09:37;12.00;99.90
11005;DHT22;5555;59.622;16.556;2023-06-04T02:12:03;12.00;99.90
11005;DHT22;5555;59.622;16.556;2023-06-04T02:14:29;11.90;99.90
11005;DHT22;5555;59.622;16.556;2023-06-04T02:16:54;11.90;99.90
11005;DHT22;5555;59.622;16.556;2023-06-04T02:19:23;11.80;99.90
11005;DHT22;5555;59.622;16.556;2023-06-04T02:21:51;11.70;99.90
11005;DHT22;5555;59.622;16.556;2023-06-04T02:24:17;11.70;99.90
11005;DHT22;5555;59.622;16.556;2023-06-04T02:26:43;11.60;99.90
11005;DHT22;5555;59.622;16.556;2023-06-04T02:29:08;11.60;99.90
11005;DHT22;5555;59.622;16.556;2023-06-04T02:31:34;11.60;99.90
11005;DHT22;5555;59.622;16.556;2023-06-04T02:34:00;11.50;99.90
11005;DHT22;5555;59.622;16.556;2023-06-04T02:36:25;11.50;99.90
11005;DHT22;5555;59.622;16.556;2023-06-04T02:38:51;11.50;99.90
11005;DHT22;5555;59.622;16.556;2023-06-04T02:41:16;11.50;99.90
11005;DHT22;5555;59.622;16.556;2023-06-04T02:43:42;11.60;99.90
11005;DHT22;5555;59.622;16.556;2023-06-04T02:46:08;11.60;99.90
11005;DHT22;5555;59.622;16.556;2023-06-04T02:48:33;11.50;99.90
11005;DHT22;5555;59.622;16.556;2023-06-04T02:50:59;11.60;99.90
11005;DHT22;5555;59.622;16.556;2023-06-04T02:53:25;11.50;99.90
11005;DHT22;5555;59.622;16.556;2023-06-04T02:55:50;11.50;99.90
11005;DHT22;5555;59.622;16.556;2023-06-04T02:58:17;11.40;99.90
11005;DHT22;5555;59.622;16.556;2023-06-04T03:00:42;11.40;99.90
11005;DHT22;5555;59.622;16.556;2023-06-04T03:03:08;11.40;99.90
11005;DHT22;5555;59.622;16.556;2023-06-04T03:05:34;11.40;99.90
11005;DHT22;5555;59.622;16.556;2023-06-04T03:08:01;11.40;99.90
11005;DHT22;5555;59.622;16.556;2023-06-04T03:10:27;11.20;99.90
11005;DHT22;5555;59.622;16.556;2023-06-04T03:12:53;11.30;99.90
11005;DHT22;5555;59.622;16.556;2023-06-04T03:15:19;11.40;99.90
11005;DHT22;5555;59.622;16.556;2023-06-04T03:17:44;11.40;99.90
11005;DHT22;5555;59.622;16.556;2023-06-04T03:20:10;11.30;99.90
11005;DHT22;5555;59.622;16.556;2023-06-04T03:22:36;11.30;99.90
11005;DHT22;5555;59.622;16.556;2023-06-04T03:25:02;11.40;99.90
11005;DHT22;5555;59.622;16.556;2023-06-04T03:27:30;11.50;99.90
11005;DHT22;5555;59.622;16.556;2023-06-04T03:29:55;11.50;99.90
11005;DHT22;5555;59.622;16.556;2023-06-04T03:32:21;11.50;99.90
11005;DHT22;5555;59.622;16.556;2023-06-04T03:34:46;11.50;99.90
11005;DHT22;5555;59.622;16.556;2023-06-04T03:37:12;11.50;99.90
11005;DHT22;5555;59.622;16.556;2023-06-04T03:39:38;11.50;99.90
11005;DHT22;5555;59.622;16.556;2023-06-04T03:42:03;11.40;99.90
11005;DHT22;5555;59.622;16.556;2023-06-04T03:44:30;11.40;99.90
11005;DHT22;5555;59.622;16.556;2023-06-04T03:46:55;11.50;99.90
11005;DHT22;5555;59.622;16.556;2023-06-04T03:49:21;11.40;99.90
11005;DHT22;5555;59.622;16.556;2023-06-04T03:51:47;11.40;99.90
11005;DHT22;5555;59.622;16.556;2023-06-04T03:54:14;11.40;99.90
11005;DHT22;5555;59.622;16.556;2023-06-04T03:56:45;11.30;99.90
11005;DHT22;5555;59.622;16.556;2023-06-04T03:59:11;11.20;99.90
11005;DHT22;5555;59.622;16.556;2023-06-04T04:01:37;11.20;99.90
11005;DHT22;5555;59.622;16.556;2023-06-04T04:04:03;11.20;99.90
11005;DHT22;5555;59.622;16.556;2023-06-04T04:06:29;11.20;99.90
11005;DHT22;5555;59.622;16.556;2023-06-04T04:08:54;11.10;99.90
11005;DHT22;5555;59.622;16.556;2023-06-04T04:11:20;11.20;99.90
11005;DHT22;5555;59.622;16.556;2023-06-04T04:13:47;11.20;99.90
11005;DHT22;5555;59.622;16.556;2023-06-04T04:16:13;11.10;99.90
11005;DHT22;5555;59.622;16.556;2023-06-04T04:18:42;11.00;99.90
11005;DHT22;5555;59.622;16.556;2023-06-04T04:21:09;11.00;99.90
11005;DHT22;5555;59.622;16.556;2023-06-04T04:23:37;11.10;99.90
11005;DHT22;5555;59.622;16.556;2023-06-04T04:26:03;11.10;99.90
11005;DHT22;5555;59.622;16.556;2023-06-04T04:28:29;11.10;99.90
11005;DHT22;5555;59.622;16.556;2023-06-04T04:30:55;11.10;99.90
11005;DHT22;5555;59.622;16.556;2023-06-04T04:33:31;11.10;99.90
11005;DHT22;5555;59.622;16.556;2023-06-04T04:36:05;11.10;99.90
11005;DHT22;5555;59.622;16.556;2023-06-04T04:38:34;11.30;99.90
11005;DHT22;5555;59.622;16.556;2023-06-04T04:41:00;11.20;99.90
11005;DHT22;5555;59.622;16.556;2023-06-04T04:43:30;11.20;99.90
11005;DHT22;5555;59.622;16.556;2023-06-04T04:45:56;11.10;99.90
11005;DHT22;5555;59.622;16.556;2023-06-04T04:48:22;11.10;99.90
11005;DHT22;5555;59.622;16.556;2023-06-04T04:50:47;11.20;99.90
11005;DHT22;5555;59.622;16.556;2023-06-04T04:53:13;11.10;99.90
11005;DHT22;5555;59.622;16.556;2023-06-04T04:55:38;11.10;99.90
11005;DHT22;5555;59.622;16.556;2023-06-04T04:58:04;11.10;99.90
11005;DHT22;5555;59.622;16.556;2023-06-04T05:00:30;11.00;99.90
11005;DHT22;5555;59.622;16.556;2023-06-04T05:02:55;11.20;99.90
11005;DHT22;5555;59.622;16.556;2023-06-04T05:05:21;11.30;99.90
11005;DHT22;5555;59.622;16.556;2023-06-04T05:07:47;11.30;99.90
11005;DHT22;5555;59.622;16.556;2023-06-04T05:10:12;11.40;99.70
11005;DHT22;5555;59.622;16.556;2023-06-04T05:12:38;11.40;99.90
11005;DHT22;5555;59.622;16.556;2023-06-04T05:15:04;11.40;99.60
11005;DHT22;5555;59.622;16.556;2023-06-04T05:17:30;11.40;99.90
11005;DHT22;5555;59.622;16.556;2023-06-04T05:19:59;11.40;99.10
11005;DHT22;5555;59.622;16.556;2023-06-04T05:22:37;11.40;99.20
11005;DHT22;5555;59.622;16.556;2023-06-04T05:25:03;11.50;99.20
11005;DHT22;5555;59.622;16.556;2023-06-04T05:27:29;11.50;99.00
11005;DHT22;5555;59.622;16.556;2023-06-04T05:29:57;11.50;99.40
11005;DHT22;5555;59.622;16.556;2023-06-04T05:32:23;11.50;99.20
11005;DHT22;5555;59.622;16.556;2023-06-04T05:34:49;11.60;99.00
11005;DHT22;5555;59.622;16.556;2023-06-04T05:37:14;11.60;99.00
11005;DHT22;5555;59.622;16.556;2023-06-04T05:39:42;11.70;98.90
11005;DHT22;5555;59.622;16.556;2023-06-04T05:42:08;11.70;98.40
11005;DHT22;5555;59.622;16.556;2023-06-04T05:44:33;11.80;98.40
11005;DHT22;5555;59.622;16.556;2023-06-04T05:46:59;11.90;98.50
11005;DHT22;5555;59.622;16.556;2023-06-04T05:49:24;12.00;98.10
11005;DHT22;5555;59.622;16.556;2023-06-04T05:51:51;12.00;98.60
11005;DHT22;5555;59.622;16.556;2023-06-04T05:54:17;12.10;98.30
11005;DHT22;5555;59.622;16.556;2023-06-04T05:56:42;12.20;98.40
11005;DHT22;5555;59.622;16.556;2023-06-04T05:59:08;12.00;97.70
11005;DHT22;5555;59.622;16.556;2023-06-04T06:01:33;11.90;97.80
11005;DHT22;5555;59.622;16.556;2023-06-04T06:04:00;12.00;97.60
11005;DHT22;5555;59.622;16.556;2023-06-04T06:06:26;12.00;98.00
11005;DHT22;5555;59.622;16.556;2023-06-04T06:08:51;12.10;97.50
11005;DHT22;5555;59.622;16.556;2023-06-04T06:11:18;12.30;97.40
11005;DHT22;5555;59.622;16.556;2023-06-04T06:13:43;12.40;97.30
11005;DHT22;5555;59.622;16.556;2023-06-04T06:16:09;12.20;97.00
11005;DHT22;5555;59.622;16.556;2023-06-04T06:18:35;12.20;97.20
11005;DHT22;5555;59.622;16.556;2023-06-04T06:21:01;12.20;97.30
11005;DHT22;5555;59.622;16.556;2023-06-04T06:23:26;12.10;97.50
11005;DHT22;5555;59.622;16.556;2023-06-04T06:25:52;12.20;97.10
11005;DHT22;5555;59.622;16.556;2023-06-04T06:28:21;12.30;97.40
11005;DHT22;5555;59.622;16.556;2023-06-04T06:30:46;12.40;96.90
11005;DHT22;5555;59.622;16.556;2023-06-04T06:33:13;12.40;96.00
11005;DHT22;5555;59.622;16.556;2023-06-04T06:35:39;12.40;96.30
11005;DHT22;5555;59.622;16.556;2023-06-04T06:38:05;12.40;96.60
11005;DHT22;5555;59.622;16.556;2023-06-04T06:40:30;12.70;96.70
11005;DHT22;5555;59.622;16.556;2023-06-04T06:42:56;12.80;96.20
11005;DHT22;5555;59.622;16.556;2023-06-04T06:45:22;12.80;96.40
11005;DHT22;5555;59.622;16.556;2023-06-04T06:47:47;12.70;95.90
11005;DHT22;5555;59.622;16.556;2023-06-04T06:50:13;12.70;96.30
11005;DHT22;5555;59.622;16.556;2023-06-04T06:52:39;12.70;95.90
11005;DHT22;5555;59.622;16.556;2023-06-04T06:55:04;12.70;96.10
11005;DHT22;5555;59.622;16.556;2023-06-04T06:57:30;12.80;95.50
11005;DHT22;5555;59.622;16.556;2023-06-04T06:59:56;12.70;95.50
11005;DHT22;5555;59.622;16.556;2023-06-04T07:02:22;12.70;95.20
11005;DHT22;5555;59.622;16.556;2023-06-04T07:04:48;12.70;95.20
11005;DHT22;5555;59.622;16.556;2023-06-04T07:07:13;12.70;95.30
11005;DHT22;5555;59.622;16.556;2023-06-04T07:09:39;12.80;95.10
11005;DHT22;5555;59.622;16.556;2023-06-04T07:12:05;12.30;95.40
11005;DHT22;5555;59.622;16.556;2023-06-04T07:14:32;12.50;96.20
11005;DHT22;5555;59.622;16.556;2023-06-04T07:16:57;12.90;95.90
11005;DHT22;5555;59.622;16.556;2023-06-04T07:19:23;13.10;95.00
11005;DHT22;5555;59.622;16.556;2023-06-04T07:21:49;13.10;94.30
11005;DHT22;5555;59.622;16.556;2023-06-04T07:24:15;12.90;94.70
11005;DHT22;5555;59.622;16.556;2023-06-04T07:26:41;13.10;95.20
11005;DHT22;5555;59.622;16.556;2023-06-04T07:29:06;13.40;94.70
11005;DHT22;5555;59.622;16.556;2023-06-04T07:31:32;13.50;94.20
11005;DHT22;5555;59.622;16.556;2023-06-04T07:33:58;13.60;93.90
11005;DHT22;5555;59.622;16.556;2023-06-04T07:36:23;13.50;93.80
11005;DHT22;5555;59.622;16.556;2023-06-04T07:38:49;13.20;94.10
11005;DHT22;5555;59.622;16.556;2023-06-04T07:41:15;13.40;94.20
11005;DHT22;5555;59.622;16.556;2023-06-04T07:43:42;13.70;94.70
11005;DHT22;5555;59.622;16.556;2023-06-04T07:46:08;13.70;93.30
11005;DHT22;5555;59.622;16.556;2023-06-04T07:48:34;13.80;93.90
11005;DHT22;5555;59.622;16.556;2023-06-04T07:51:01;14.00;93.90
11005;DHT22;5555;59.622;16.556;2023-06-04T07:53:27;14.20;93.70
11005;DHT22;5555;59.622;16.556;2023-06-04T07:55:53;14.50;93.90
11005;DHT22;5555;59.622;16.556;2023-06-04T07:58:19;14.30;93.10
11005;DHT22;5555;59.622;16.556;2023-06-04T08:00:45;14.40;93.50
11005;DHT22;5555;59.622;16.556;2023-06-04T08:03:11;14.50;93.70
11005;DHT22;5555;59.622;16.556;2023-06-04T08:05:36;14.20;92.90
11005;DHT22;5555;59.622;16.556;2023-06-04T08:08:02;14.20;93.10
11005;DHT22;5555;59.622;16.556;2023-06-04T08:10:29;14.30;92.40
11005;DHT22;5555;59.622;16.556;2023-06-04T08:12:55;13.90;92.30
11005;DHT22;5555;59.622;16.556;2023-06-04T08:15:20;13.90;92.70
11005;DHT22;5555;59.622;16.556;2023-06-04T08:17:46;14.00;92.60
11005;DHT22;5555;59.622;16.556;2023-06-04T08:20:12;14.10;92.30
11005;DHT22;5555;59.622;16.556;2023-06-04T08:22:37;14.10;91.90
11005;DHT22;5555;59.622;16.556;2023-06-04T08:25:03;14.50;91.70
11005;DHT22;5555;59.622;16.556;2023-06-04T08:27:30;14.40;92.00
11005;DHT22;5555;59.622;16.556;2023-06-04T08:29:56;14.60;92.30
11005;DHT22;5555;59.622;16.556;2023-06-04T08:32:23;14.80;92.00
11005;DHT22;5555;59.622;16.556;2023-06-04T08:34:49;15.10;91.30
11005;DHT22;5555;59.622;16.556;2023-06-04T08:37:16;15.30;90.60
11005;DHT22;5555;59.622;16.556;2023-06-04T08:39:42;15.00;90.30
11005;DHT22;5555;59.622;16.556;2023-06-04T08:42:10;15.10;90.00
11005;DHT22;5555;59.622;16.556;2023-06-04T08:44:42;15.20;91.00
11005;DHT22;5555;59.622;16.556;2023-06-04T08:47:09;15.60;90.30
11005;DHT22;5555;59.622;16.556;2023-06-04T08:49:36;15.10;88.90
11005;DHT22;5555;59.622;16.556;2023-06-04T08:52:07;14.90;89.90
11005;DHT22;5555;59.622;16.556;2023-06-04T08:54:33;14.80;89.80
11005;DHT22;5555;59.622;16.556;2023-06-04T08:57:00;15.10;88.70
11005;DHT22;5555;59.622;16.556;2023-06-04T08:59:27;15.20;91.10
11005;DHT22;5555;59.622;16.556;2023-06-04T09:01:56;15.50;89.70
11005;DHT22;5555;59.622;16.556;2023-06-04T09:04:24;15.50;89.00
11005;DHT22;5555;59.622;16.556;2023-06-04T09:06:51;15.50;87.50
11005;DHT22;5555;59.622;16.556;2023-06-04T09:09:19;15.30;86.50
11005;DHT22;5555;59.622;16.556;2023-06-04T09:11:54;15.30;88.40
11005;DHT22;5555;59.622;16.556;2023-06-04T09:14:20;15.30;89.60
11005;DHT22;5555;59.622;16.556;2023-06-04T09:16:47;15.10;87.00
11005;DHT22;5555;59.622;16.556;2023-06-04T09:19:14;15.30;89.90
11005;DHT22;5555;59.622;16.556;2023-06-04T09:21:59;15.50;90.00
11005;DHT22;5555;59.622;16.556;2023-06-04T09:24:40;16.00;87.70
11005;DHT22;5555;59.622;16.556;2023-06-04T09:27:10;16.30;87.20
11005;DHT22;5555;59.622;16.556;2023-06-04T09:29:36;16.10;86.80
11005;DHT22;5555;59.622;16.556;2023-06-04T09:32:02;15.90;87.70
11005;DHT22;5555;59.622;16.556;2023-06-04T09:34:30;15.70;88.70
11005;DHT22;5555;59.622;16.556;2023-06-04T09:36:56;16.00;90.00
11005;DHT22;5555;59.622;16.556;2023-06-04T09:39:22;16.60;87.20
11005;DHT22;5555;59.622;16.556;2023-06-04T09:42:02;16.50;86.10
11005;DHT22;5555;59.622;16.556;2023-06-04T09:44:31;16.40;83.70
11005;DHT22;5555;59.622;16.556;2023-06-04T09:46:57;16.40;84.80
11005;DHT22;5555;59.622;16.556;2023-06-04T09:49:23;16.70;87.90
11005;DHT22;5555;59.622;16.556;2023-06-04T09:51:49;16.30;89.60
11005;DHT22;5555;59.622;16.556;2023-06-04T09:54:16;16.50;84.60
11005;DHT22;5555;59.622;16.556;2023-06-04T09:56:42;16.30;84.90
11005;DHT22;5555;59.622;16.556;2023-06-04T09:59:13;16.10;85.90
11005;DHT22;5555;59.622;16.556;2023-06-04T10:01:40;16.20;87.70
11005;DHT22;5555;59.622;16.556;2023-06-04T10:04:07;16.80;86.00
11005;DHT22;5555;59.622;16.556;2023-06-04T10:06:35;16.90;87.40
11005;DHT22;5555;59.622;16.556;2023-06-04T10:09:06;16.90;86.20
11005;DHT22;5555;59.622;16.556;2023-06-04T10:11:51;17.20;86.00
11005;DHT22;5555;59.622;16.556;2023-06-04T10:14:22;17.10;86.90
11005;DHT22;5555;59.622;16.556;2023-06-04T10:16:49;17.50;86.90
11005;DHT22;5555;59.622;16.556;2023-06-04T10:19:16;17.60;83.00
11005;DHT22;5555;59.622;16.556;2023-06-04T10:21:43;17.20;81.80
11005;DHT22;5555;59.622;16.556;2023-06-04T10:24:09;16.70;81.50
11005;DHT22;5555;59.622;16.556;2023-06-04T10:26:34;16.80;82.00
11005;DHT22;5555;59.622;16.556;2023-06-04T10:29:01;17.00;82.80
11005;DHT22;5555;59.622;16.556;2023-06-04T10:31:28;17.50;82.10
11005;DHT22;5555;59.622;16.556;2023-06-04T10:33:55;17.60;81.60
11005;DHT22;5555;59.622;16.556;2023-06-04T10:36:22;18.30;79.40
11005;DHT22;5555;59.622;16.556;2023-06-04T10:38:53;18.60;81.90
11005;DHT22;5555;59.622;16.556;2023-06-04T10:41:20;18.20;81.50
11005;DHT22;5555;59.622;16.556;2023-06-04T10:43:51;18.40;79.90
11005;DHT22;5555;59.622;16.556;2023-06-04T10:46:19;18.00;82.20
11005;DHT22;5555;59.622;16.556;2023-06-04T10:48:49;17.90;79.40
11005;DHT22;5555;59.622;16.556;2023-06-04T10:51:29;18.00;82.70
11005;DHT22;5555;59.622;16.556;2023-06-04T10:53:58;18.60;84.80
11005;DHT22;5555;59.622;16.556;2023-06-04T10:56:27;19.00;78.90
11005;DHT22;5555;59.622;16.556;2023-06-04T10:58:53;18.10;76.10
11005;DHT22;5555;59.622;16.556;2023-06-04T11:01:28;17.70;77.50
11005;DHT22;5555;59.622;16.556;2023-06-04T11:03:55;18.00;78.20
11005;DHT22;5555;59.622;16.556;2023-06-04T11:06:22;17.70;79.70
11005;DHT22;5555;59.622;16.556;2023-06-04T11:08:48;17.90;81.90
11005;DHT22;5555;59.622;16.556;2023-06-04T11:11:15;18.40;78.90
11005;DHT22;5555;59.622;16.556;2023-06-04T11:13:41;18.40;78.30
11005;DHT22;5555;59.622;16.556;2023-06-04T11:16:20;18.60;79.10
11005;DHT22;5555;59.622;16.556;2023-06-04T11:18:56;18.50;77.60
11005;DHT22;5555;59.622;16.556;2023-06-04T11:21:22;18.40;78.80
11005;DHT22;5555;59.622;16.556;2023-06-04T11:23:49;18.90;75.80
11005;DHT22;5555;59.622;16.556;2023-06-04T11:26:15;19.40;76.00
11005;DHT22;5555;59.622;16.556;2023-06-04T11:28:41;19.80;76.00
11005;DHT22;5555;59.622;16.556;2023-06-04T11:31:08;19.90;74.50
11005;DHT22;5555;59.622;16.556;2023-06-04T11:33:46;20.60;75.40
11005;DHT22;5555;59.622;16.556;2023-06-04T11:36:27;20.20;74.60
11005;DHT22;5555;59.622;16.556;2023-06-04T11:39:00;20.00;76.10
11005;DHT22;5555;59.622;16.556;2023-06-04T11:41:30;20.80;77.60
11005;DHT22;5555;59.622;16.556;2023-06-04T11:43:57;21.60;73.50
11005;DHT22;5555;59.622;16.556;2023-06-04T11:46:23;21.00;70.20
11005;DHT22;5555;59.622;16.556;2023-06-04T11:48:53;20.00;72.30
11005;DHT22;5555;59.622;16.556;2023-06-04T11:51:20;20.30;73.40
11005;DHT22;5555;59.622;16.556;2023-06-04T11:53:47;20.70;76.80
11005;DHT22;5555;59.622;16.556;2023-06-04T11:56:12;20.80;74.30
11005;DHT22;5555;59.622;16.556;2023-06-04T11:58:38;21.70;72.90
11005;DHT22;5555;59.622;16.556;2023-06-04T12:01:06;20.80;72.10
11005;DHT22;5555;59.622;16.556;2023-06-04T12:03:40;20.80;70.80
11005;DHT22;5555;59.622;16.556;2023-06-04T12:06:17;21.50;73.40
11005;DHT22;5555;59.622;16.556;2023-06-04T12:08:50;22.00;70.90
11005;DHT22;5555;59.622;16.556;2023-06-04T12:11:33;21.80;68.30
11005;DHT22;5555;59.622;16.556;2023-06-04T12:14:00;21.90;70.30
11005;DHT22;5555;59.622;16.556;2023-06-04T12:16:26;21.90;67.80
11005;DHT22;5555;59.622;16.556;2023-06-04T12:19:10;21.20;68.70
11005;DHT22;5555;59.622;16.556;2023-06-04T12:21:37;21.20;67.50
11005;DHT22;5555;59.622;16.556;2023-06-04T12:26:33;21.20;69.30
11005;DHT22;5555;59.622;16.556;2023-06-04T12:29:08;21.40;71.80
11005;DHT22;5555;59.622;16.556;2023-06-04T12:31:36;22.30;69.90
11005;DHT22;5555;59.622;16.556;2023-06-04T12:34:02;21.60;67.00
11005;DHT22;5555;59.622;16.556;2023-06-04T12:36:28;22.00;66.80
11005;DHT22;5555;59.622;16.556;2023-06-04T12:38:57;21.30;67.10
11005;DHT22;5555;59.622;16.556;2023-06-04T12:41:23;21.40;67.00
11005;DHT22;5555;59.622;16.556;2023-06-04T12:43:49;22.10;68.80
11005;DHT22;5555;59.622;16.556;2023-06-04T12:46:14;21.90;67.30
11005;DHT22;5555;59.622;16.556;2023-06-04T12:48:41;22.00;66.60
11005;DHT22;5555;59.622;16.556;2023-06-04T12:51:08;21.70;65.40
11005;DHT22;5555;59.622;16.556;2023-06-04T12:53:38;22.30;66.60
11005;DHT22;5555;59.622;16.556;2023-06-04T12:56:03;22.00;66.10
11005;DHT22;5555;59.622;16.556;2023-06-04T12:58:29;22.90;65.60
11005;DHT22;5555;59.622;16.556;2023-06-04T13:00:55;23.20;66.40
11005;DHT22;5555;59.622;16.556;2023-06-04T13:03:21;23.30;64.70
11005;DHT22;5555;59.622;16.556;2023-06-04T13:05:46;22.60;65.20
11005;DHT22;5555;59.622;16.556;2023-06-04T13:08:12;23.10;64.70
11005;DHT22;5555;59.622;16.556;2023-06-04T13:10:38;23.60;65.10
11005;DHT22;5555;59.622;16.556;2023-06-04T13:13:03;24.10;61.70
11005;DHT22;5555;59.622;16.556;2023-06-04T13:15:29;23.00;63.90
11005;DHT22;5555;59.622;16.556;2023-06-04T13:17:55;24.00;64.00
11005;DHT22;5555;59.622;16.556;2023-06-04T13:20:20;24.00;61.60
11005;DHT22;5555;59.622;16.556;2023-06-04T13:22:46;23.10;64.40
11005;DHT22;5555;59.622;16.556;2023-06-04T13:25:12;23.40;62.00
11005;DHT22;5555;59.622;16.556;2023-06-04T13:27:38;23.30;60.80
11005;DHT22;5555;59.622;16.556;2023-06-04T13:30:05;23.40;60.60
11005;DHT22;5555;59.622;16.556;2023-06-04T13:32:31;23.30;64.30
11005;DHT22;5555;59.622;16.556;2023-06-04T13:34:56;23.20;64.50
11005;DHT22;5555;59.622;16.556;2023-06-04T13:37:22;24.50;62.10
11005;DHT22;5555;59.622;16.556;2023-06-04T13:39:48;24.40;63.40
11005;DHT22;5555;59.622;16.556;2023-06-04T13:42:14;24.50;61.20
11005;DHT22;5555;59.622;16.556;2023-06-04T13:44:39;24.20;60.70
11005;DHT22;5555;59.622;16.556;2023-06-04T13:47:05;22.90;63.10
11005;DHT22;5555;59.622;16.556;2023-06-04T13:49:34;23.10;64.10
11005;DHT22;5555;59.622;16.556;2023-06-04T13:52:00;24.10;61.10
11005;DHT22;5555;59.622;16.556;2023-06-04T13:54:26;24.50;61.80
11005;DHT22;5555;59.622;16.556;2023-06-04T13:56:52;25.00;61.80
11005;DHT22;5555;59.622;16.556;2023-06-04T13:59:17;24.70;61.00
11005;DHT22;5555;59.622;16.556;2023-06-04T14:01:43;24.10;58.90
11005;DHT22;5555;59.622;16.556;2023-06-04T14:04:09;24.30;61.30
11005;DHT22;5555;59.622;16.556;2023-06-04T14:06:37;25.30;62.10
11005;DHT22;5555;59.622;16.556;2023-06-04T14:09:03;24.10;60.80
11005;DHT22;5555;59.622;16.556;2023-06-04T14:11:29;24.60;63.50
11005;DHT22;5555;59.622;16.556;2023-06-04T14:13:55;25.30;59.60
11005;DHT22;5555;59.622;16.556;2023-06-04T14:16:21;25.40;60.00
11005;DHT22;5555;59.622;16.556;2023-06-04T14:18:47;25.10;59.40
11005;DHT22;5555;59.622;16.556;2023-06-04T14:21:12;24.30;60.40
11005;DHT22;5555;59.622;16.556;2023-06-04T14:23:38;24.80;58.70
11005;DHT22;5555;59.622;16.556;2023-06-04T14:26:04;24.80;60.10
11005;DHT22;5555;59.622;16.556;2023-06-04T14:28:29;25.00;59.20
11005;DHT22;5555;59.622;16.556;2023-06-04T14:30:55;25.40;58.00
11005;DHT22;5555;59.622;16.556;2023-06-04T14:33:21;25.40;58.50
11005;DHT22;5555;59.622;16.556;2023-06-04T14:35:47;27.00;55.50
11005;DHT22;5555;59.622;16.556;2023-06-04T14:40:42;27.90;55.30
11005;DHT22;5555;59.622;16.556;2023-06-04T14:43:10;26.60;55.50
11005;DHT22;5555;59.622;16.556;2023-06-04T14:45:36;26.30;56.20
11005;DHT22;5555;59.622;16.556;2023-06-04T14:48:04;25.50;55.90
11005;DHT22;5555;59.622;16.556;2023-06-04T14:50:30;24.30;58.30
11005;DHT22;5555;59.622;16.556;2023-06-04T14:52:56;24.90;58.30
11005;DHT22;5555;59.622;16.556;2023-06-04T14:55:21;26.30;56.10
11005;DHT22;5555;59.622;16.556;2023-06-04T14:57:49;27.30;54.70
11005;DHT22;5555;59.622;16.556;2023-06-04T15:00:15;26.80;55.50
11005;DHT22;5555;59.622;16.556;2023-06-04T15:02:41;26.70;55.90
11005;DHT22;5555;59.622;16.556;2023-06-04T15:05:07;25.90;56.20
11005;DHT22;5555;59.622;16.556;2023-06-04T15:07:33;26.70;55.90
11005;DHT22;5555;59.622;16.556;2023-06-04T15:09:59;26.80;55.90
11005;DHT22;5555;59.622;16.556;2023-06-04T15:12:27;26.80;55.40
11005;DHT22;5555;59.622;16.556;2023-06-04T15:14:53;26.80;55.10
11005;DHT22;5555;59.622;16.556;2023-06-04T15:17:18;25.70;56.90
11005;DHT22;5555;59.622;16.556;2023-06-04T15:19:44;25.90;56.60
11005;DHT22;5555;59.622;16.556;2023-06-04T15:24:36;25.60;55.10
11005;DHT22;5555;59.622;16.556;2023-06-04T15:27:01;26.00;55.40
11005;DHT22;5555;59.622;16.556;2023-06-04T15:29:27;26.00;55.90
11005;DHT22;5555;59.622;16.556;2023-06-04T15:31:52;27.30;53.80
11005;DHT22;5555;59.622;16.556;2023-06-04T15:34:18;26.20;54.90
11005;DHT22;5555;59.622;16.556;2023-06-04T15:36:44;25.70;54.40
11005;DHT22;5555;59.622;16.556;2023-06-04T15:39:11;26.30;54.60
11005;DHT22;5555;59.622;16.556;2023-06-04T15:41:37;25.90;56.30